DLH494 EDDM-CYYZ
Flight info
| Callsign | DLH494 |
|---|---|
| Flight time | N/A |
| Altitude | 38000 |
| Route | GIVMI6Q GIVMI Y101 INBED DCT REKDI DCT LOHRE DCT ADKUV DCT LENDO DCT SOGRI DCT DENUT L610 KOPUL DCT SABER DCT SIVDA DCT RODOL UL28 PENIL DCT DEJEM DCT OZRAT DCT WETFI DCT ASKUP DCT TUGSI DCT REVNU DCT RESNO/M084F390 DCT 56N020W 56N030W 56N040W 55N050W DCT LOMSI/N0496F400 N672A ANATI Q812 MAIRE DCT OBTAX Q824 LETAK IMEBA9 |
| Aircraft | A359/H-SADE2E3GHIJ1J2J3J4J5M1P2RWXYZ/LB1D1 |
Departure
| Time | N/A |
|---|---|
| Airport | Munich Airport (EDDM) |
Arrival
| Time | 2026-05-05 01:47 |
|---|---|
| Airport | Toronto Pearson International Airport (CYYZ) |
| Time | Latitude | Longitude | Altitude | Speed | Heading |
|---|---|---|---|---|---|
| 2026-05-05 01:29 | 44.38298 | -78.74199 | 18103 ft | 328 kts | 241° |
| 2026-05-05 01:29 | 44.37134 | -78.76937 | 17515 ft | 327 kts | 241° |
| 2026-05-05 01:29 | 44.35976 | -78.79655 | 16908 ft | 324 kts | 241° |
| 2026-05-05 01:29 | 44.34827 | -78.82349 | 16354 ft | 322 kts | 241° |
| 2026-05-05 01:30 | 44.33687 | -78.85022 | 15785 ft | 319 kts | 241° |
| 2026-05-05 01:30 | 44.32553 | -78.87678 | 15224 ft | 318 kts | 241° |
| 2026-05-05 01:30 | 44.31424 | -78.90319 | 14692 ft | 315 kts | 241° |
| 2026-05-05 01:30 | 44.30304 | -78.92939 | 14154 ft | 313 kts | 241° |
| 2026-05-05 01:31 | 44.29188 | -78.95545 | 13607 ft | 312 kts | 241° |
| 2026-05-05 01:31 | 44.28076 | -78.98140 | 13011 ft | 310 kts | 241° |
| 2026-05-05 01:31 | 44.26976 | -79.00706 | 12440 ft | 307 kts | 241° |
| 2026-05-05 01:31 | 44.25884 | -79.03249 | 11901 ft | 304 kts | 241° |
| 2026-05-05 01:32 | 44.24727 | -79.05675 | 11572 ft | 297 kts | 234° |
| 2026-05-05 01:32 | 44.23388 | -79.07835 | 11148 ft | 293 kts | 230° |
| 2026-05-05 01:32 | 44.22011 | -79.09915 | 10653 ft | 290 kts | 230° |
| 2026-05-05 01:32 | 44.20673 | -79.11920 | 10521 ft | 274 kts | 230° |
| 2026-05-05 01:33 | 44.19431 | -79.13783 | 10412 ft | 258 kts | 230° |
| 2026-05-05 01:33 | 44.18239 | -79.15577 | 10299 ft | 247 kts | 230° |
| 2026-05-05 01:33 | 44.17099 | -79.17295 | 10163 ft | 238 kts | 230° |
| 2026-05-05 01:33 | 44.15975 | -79.18994 | 9860 ft | 242 kts | 230° |
| 2026-05-05 01:34 | 44.14791 | -79.20790 | 9720 ft | 258 kts | 230° |
| 2026-05-05 01:34 | 44.13588 | -79.22605 | 9523 ft | 250 kts | 230° |
| 2026-05-05 01:34 | 44.12433 | -79.24336 | 9347 ft | 238 kts | 230° |
| 2026-05-05 01:34 | 44.11329 | -79.25993 | 9104 ft | 230 kts | 230° |
| 2026-05-05 01:35 | 44.10266 | -79.27594 | 8863 ft | 222 kts | 230° |
| 2026-05-05 01:35 | 44.09226 | -79.29159 | 8548 ft | 220 kts | 230° |
| 2026-05-05 01:35 | 44.08181 | -79.30714 | 8276 ft | 220 kts | 228° |
| 2026-05-05 01:35 | 44.06952 | -79.31982 | 7992 ft | 224 kts | 210° |
| 2026-05-05 01:36 | 44.05423 | -79.32505 | 7730 ft | 231 kts | 191° |
| 2026-05-05 01:36 | 44.03813 | -79.32599 | 7455 ft | 232 kts | 187° |
| 2026-05-05 01:36 | 44.02208 | -79.32634 | 7196 ft | 230 kts | 187° |
| 2026-05-05 01:36 | 44.00612 | -79.32675 | 6927 ft | 229 kts | 188° |
| 2026-05-05 01:37 | 43.99019 | -79.32725 | 6661 ft | 228 kts | 188° |
| 2026-05-05 01:37 | 43.97439 | -79.32781 | 6395 ft | 226 kts | 187° |
| 2026-05-05 01:37 | 43.95870 | -79.32839 | 6130 ft | 225 kts | 187° |
| 2026-05-05 01:37 | 43.94311 | -79.32898 | 5868 ft | 223 kts | 188° |
| 2026-05-05 01:38 | 43.92766 | -79.32957 | 5605 ft | 221 kts | 188° |
| 2026-05-05 01:38 | 43.91243 | -79.33102 | 5330 ft | 217 kts | 195° |
| 2026-05-05 01:38 | 43.89886 | -79.33851 | 5085 ft | 207 kts | 218° |
| 2026-05-05 01:38 | 43.88818 | -79.35165 | 4846 ft | 204 kts | 227° |
| 2026-05-05 01:39 | 43.87844 | -79.36594 | 4604 ft | 204 kts | 228° |
| 2026-05-05 01:39 | 43.86878 | -79.38031 | 4348 ft | 202 kts | 228° |
| 2026-05-05 01:39 | 43.85919 | -79.39446 | 4135 ft | 201 kts | 228° |
| 2026-05-05 01:39 | 43.84959 | -79.40854 | 4025 ft | 200 kts | 227° |
| 2026-05-05 01:40 | 43.84001 | -79.42254 | 4019 ft | 200 kts | 227° |
| 2026-05-05 01:40 | 43.83044 | -79.43643 | 4017 ft | 199 kts | 227° |
| 2026-05-05 01:40 | 43.82090 | -79.45038 | 4012 ft | 200 kts | 228° |
| 2026-05-05 01:40 | 43.81134 | -79.46436 | 3905 ft | 196 kts | 227° |
| 2026-05-05 01:41 | 43.80238 | -79.47746 | 3677 ft | 177 kts | 227° |
| 2026-05-05 01:41 | 43.79437 | -79.48913 | 3452 ft | 158 kts | 227° |
| 2026-05-05 01:41 | 43.78726 | -79.49949 | 3240 ft | 140 kts | 227° |
| 2026-05-05 01:41 | 43.78095 | -79.50869 | 3039 ft | 124 kts | 227° |
| 2026-05-05 01:42 | 43.77536 | -79.51684 | 2882 ft | 110 kts | 227° |
| 2026-05-05 01:42 | 43.77019 | -79.52437 | 2743 ft | 106 kts | 228° |
| 2026-05-05 01:42 | 43.76525 | -79.53158 | 2601 ft | 101 kts | 226° |
| 2026-05-05 01:42 | 43.76067 | -79.53824 | 2471 ft | 92 kts | 225° |
| 2026-05-05 01:43 | 43.75629 | -79.54462 | 2352 ft | 91 kts | 225° |
| 2026-05-05 01:43 | 43.75194 | -79.55095 | 2223 ft | 91 kts | 224° |
| 2026-05-05 01:43 | 43.74761 | -79.55725 | 2124 ft | 92 kts | 224° |
| 2026-05-05 01:43 | 43.74297 | -79.56399 | 1984 ft | 99 kts | 226° |
| 2026-05-05 01:44 | 43.73822 | -79.57092 | 1849 ft | 101 kts | 225° |
| 2026-05-05 01:44 | 43.73339 | -79.57794 | 1712 ft | 102 kts | 224° |
| 2026-05-05 01:44 | 43.72850 | -79.58506 | 1594 ft | 104 kts | 222° |
| 2026-05-05 01:44 | 43.72350 | -79.59241 | 1410 ft | 104 kts | 224° |
| 2026-05-05 01:45 | 43.71851 | -79.59980 | 1203 ft | 107 kts | 226° |
| 2026-05-05 01:45 | 43.71331 | -79.60744 | 1016 ft | 108 kts | 224° |
| 2026-05-05 01:45 | 43.70815 | -79.61512 | 916 ft | 112 kts | 223° |
| 2026-05-05 01:45 | 43.70281 | -79.62264 | 774 ft | 110 kts | 224° |
| 2026-05-05 01:46 | 43.69749 | -79.63034 | 661 ft | 112 kts | 225° |
| 2026-05-05 01:46 | 43.69214 | -79.63831 | 589 ft | 121 kts | 225° |
| 2026-05-05 01:46 | 43.68632 | -79.64670 | 583 ft | 117 kts | 224° |
| 2026-05-05 01:46 | 43.68127 | -79.65380 | 572 ft | 80 kts | 226° |
| 2026-05-05 01:47 | 43.67959 | -79.65623 | 575 ft | 15 kts | 228° |
| 2026-05-05 01:47 | 43.67908 | -79.65740 | 576 ft | 14 kts | 250° |
| 2026-05-05 01:47 | 43.67883 | -79.65880 | 575 ft | 17 kts | 256° |
| 2026-05-05 01:47 | 43.67907 | -79.65974 | 574 ft | 11 kts | 352° |
| 2026-05-05 01:48 | 43.67982 | -79.65913 | 573 ft | 15 kts | 46° |
| 2026-05-05 01:48 | 43.68068 | -79.65790 | 571 ft | 21 kts | 46° |
| 2026-05-05 01:48 | 43.68177 | -79.65633 | 576 ft | 25 kts | 46° |
| 2026-05-05 01:48 | 43.68306 | -79.65448 | 577 ft | 25 kts | 46° |
| 2026-05-05 01:49 | 43.68434 | -79.65296 | 575 ft | 23 kts | 21° |
| 2026-05-05 01:49 | 43.68581 | -79.65238 | 574 ft | 20 kts | 14° |
| 2026-05-05 01:49 | 43.68684 | -79.65132 | 576 ft | 19 kts | 57° |
| 2026-05-05 01:49 | 43.68637 | -79.64986 | 569 ft | 20 kts | 141° |
| 2026-05-05 01:50 | 43.68526 | -79.64852 | 573 ft | 22 kts | 137° |
| 2026-05-05 01:50 | 43.68407 | -79.64698 | 576 ft | 24 kts | 136° |
| 2026-05-05 01:50 | 43.68278 | -79.64531 | 576 ft | 27 kts | 137° |
| 2026-05-05 01:50 | 43.68138 | -79.64350 | 578 ft | 27 kts | 136° |
| 2026-05-05 01:51 | 43.67994 | -79.64163 | 578 ft | 29 kts | 137° |
| 2026-05-05 01:51 | 43.67840 | -79.63961 | 580 ft | 32 kts | 137° |
| 2026-05-05 01:51 | 43.67685 | -79.63757 | 578 ft | 30 kts | 136° |
| 2026-05-05 01:51 | 43.67563 | -79.63597 | 578 ft | 21 kts | 137° |
| 2026-05-05 01:52 | 43.67448 | -79.63448 | 577 ft | 24 kts | 137° |
| 2026-05-05 01:52 | 43.67316 | -79.63274 | 576 ft | 28 kts | 136° |
| 2026-05-05 01:52 | 43.67173 | -79.63085 | 577 ft | 26 kts | 136° |
| 2026-05-05 01:52 | 43.67106 | -79.62997 | 579 ft | 19 kts | 136° |
| 2026-05-05 01:53 | 43.67002 | -79.62860 | 580 ft | 22 kts | 136° |
| 2026-05-05 01:53 | 43.66881 | -79.62703 | 579 ft | 25 kts | 137° |
| 2026-05-05 01:53 | 43.66748 | -79.62530 | 580 ft | 27 kts | 136° |
| 2026-05-05 01:53 | 43.66633 | -79.62343 | 579 ft | 21 kts | 94° |
| 2026-05-05 01:54 | 43.66716 | -79.62178 | 581 ft | 23 kts | 45° |
| 2026-05-05 01:54 | 43.66833 | -79.62008 | 577 ft | 26 kts | 47° |
| 2026-05-05 01:54 | 43.66942 | -79.61848 | 581 ft | 24 kts | 47° |
| 2026-05-05 01:54 | 43.67056 | -79.61683 | 581 ft | 22 kts | 46° |
| 2026-05-05 01:55 | 43.67172 | -79.61525 | 578 ft | 25 kts | 44° |
| 2026-05-05 01:55 | 43.67292 | -79.61376 | 571 ft | 24 kts | 37° |
| 2026-05-05 01:55 | 43.67433 | -79.61286 | 575 ft | 20 kts | 21° |
| 2026-05-05 01:55 | 43.67540 | -79.61274 | 571 ft | 9 kts | 11° |
| 2026-05-05 01:56 | 43.67587 | -79.61261 | 572 ft | 0 kts | 11° |